createdAt,value
2018-06-14T00:02:04.655Z,14.90
2018-06-14T00:04:33.513Z,14.80
2018-06-14T00:07:02.338Z,14.80
2018-06-14T00:09:32.089Z,14.80
2018-06-14T00:12:00.782Z,14.90
2018-06-14T00:14:29.463Z,14.90
2018-06-14T00:16:58.134Z,14.90
2018-06-14T00:19:26.806Z,14.90
2018-06-14T00:21:55.470Z,14.90
2018-06-14T00:24:24.177Z,14.90
2018-06-14T00:26:52.879Z,14.80
2018-06-14T00:29:21.527Z,14.80
2018-06-14T00:31:50.214Z,14.80
2018-06-14T00:34:18.919Z,14.80
2018-06-14T00:36:47.618Z,14.80
2018-06-14T00:39:16.287Z,14.80
2018-06-14T00:41:45.061Z,14.80
2018-06-14T00:44:13.741Z,14.80
2018-06-14T00:46:42.421Z,14.90
2018-06-14T00:49:11.110Z,14.80
2018-06-14T00:51:39.806Z,14.90
2018-06-14T00:54:08.677Z,14.90
2018-06-14T00:56:48.487Z,14.80
2018-06-14T00:59:17.171Z,14.80
2018-06-14T01:01:46.254Z,14.80
2018-06-14T01:04:14.954Z,14.80
2018-06-14T01:06:43.654Z,14.80
2018-06-14T01:09:12.350Z,14.80
2018-06-14T01:11:41.735Z,14.80
2018-06-14T01:14:10.555Z,14.80
2018-06-14T01:16:39.304Z,14.80
2018-06-14T01:19:07.973Z,14.70
2018-06-14T01:21:36.936Z,14.70
2018-06-14T01:24:05.916Z,14.70
2018-06-14T01:26:34.843Z,14.80
2018-06-14T01:29:03.617Z,14.70
2018-06-14T01:31:32.479Z,14.70
2018-06-14T01:34:01.174Z,14.70
2018-06-14T01:36:29.852Z,14.80
2018-06-14T01:38:58.581Z,14.70
2018-06-14T01:41:27.235Z,14.70
2018-06-14T01:43:55.872Z,14.70
2018-06-14T01:46:24.544Z,14.70
2018-06-14T01:48:53.330Z,14.60
2018-06-14T01:51:22.009Z,14.70
2018-06-14T01:53:50.715Z,14.70
2018-06-14T01:56:19.426Z,14.70
2018-06-14T01:58:48.257Z,14.70
2018-06-14T02:01:16.929Z,14.60
2018-06-14T02:03:45.711Z,14.60
2018-06-14T02:06:14.434Z,14.60
2018-06-14T02:08:43.144Z,14.70
2018-06-14T02:11:11.891Z,14.60
2018-06-14T02:13:40.904Z,14.70
2018-06-14T02:16:10.330Z,14.60
2018-06-14T02:18:40.947Z,14.60
2018-06-14T02:21:11.902Z,14.60
2018-06-14T02:23:40.582Z,14.60
2018-06-14T02:26:09.387Z,14.60
2018-06-14T02:28:38.185Z,14.60
2018-06-14T02:31:06.969Z,14.60
2018-06-14T02:33:35.820Z,14.60
2018-06-14T02:36:04.718Z,14.60
2018-06-14T02:38:33.491Z,14.60
2018-06-14T02:41:02.344Z,14.60
2018-06-14T02:43:31.497Z,14.60
2018-06-14T02:46:00.226Z,14.60
2018-06-14T02:48:28.899Z,14.50
2018-06-14T02:50:57.592Z,14.50
2018-06-14T02:53:26.299Z,14.50
2018-06-14T02:55:55.004Z,14.50
2018-06-14T02:58:23.695Z,14.50
2018-06-14T03:00:52.342Z,14.60
2018-06-14T03:03:21.026Z,14.60
2018-06-14T03:05:49.706Z,14.60
2018-06-14T03:08:18.367Z,14.60
2018-06-14T03:10:47.035Z,14.60
2018-06-14T03:15:44.070Z,14.60
2018-06-14T03:18:12.783Z,14.60
2018-06-14T03:20:41.519Z,14.50
2018-06-14T03:23:10.344Z,14.50
2018-06-14T03:25:39.197Z,14.50
2018-06-14T03:28:07.988Z,14.50
2018-06-14T03:30:36.824Z,14.50
2018-06-14T03:33:05.604Z,14.50
2018-06-14T03:35:34.452Z,14.50
2018-06-14T03:38:03.346Z,14.50
2018-06-14T03:40:32.168Z,14.50
2018-06-14T03:43:00.929Z,14.50
2018-06-14T03:45:30.426Z,14.50
2018-06-14T03:47:59.147Z,14.50
2018-06-14T03:50:27.781Z,14.50
2018-06-14T03:52:56.531Z,14.50
2018-06-14T03:55:32.850Z,14.50
2018-06-14T03:58:01.595Z,14.50
2018-06-14T04:00:30.399Z,14.50
2018-06-14T04:02:59.062Z,14.50
2018-06-14T04:05:27.778Z,14.50
2018-06-14T04:07:56.449Z,14.50
2018-06-14T04:10:25.232Z,14.60
2018-06-14T04:12:54.801Z,14.50
2018-06-14T04:15:23.527Z,14.50
2018-06-14T04:17:58.092Z,14.50
2018-06-14T04:20:27.016Z,14.40
2018-06-14T04:22:55.666Z,14.50
2018-06-14T04:25:24.335Z,14.50
2018-06-14T04:27:52.986Z,14.50
2018-06-14T04:30:21.699Z,14.50
2018-06-14T04:32:50.369Z,14.40
2018-06-14T04:35:19.044Z,14.50
2018-06-14T04:37:47.723Z,14.50
2018-06-14T04:40:16.358Z,14.50
2018-06-14T04:42:45.062Z,14.60
2018-06-14T04:45:13.699Z,14.50
2018-06-14T04:47:42.350Z,14.50
2018-06-14T04:50:11.001Z,14.50
2018-06-14T04:52:39.787Z,14.50
2018-06-14T04:55:08.550Z,14.50
2018-06-14T04:57:37.271Z,14.60
2018-06-14T05:00:08.470Z,14.50
2018-06-14T05:02:37.227Z,14.50
2018-06-14T05:05:06.858Z,14.50
2018-06-14T05:07:36.208Z,14.60
2018-06-14T05:10:05.002Z,14.60
2018-06-14T05:12:33.790Z,14.60
2018-06-14T05:15:02.670Z,14.60
2018-06-14T05:17:32.007Z,14.60
2018-06-14T05:20:00.666Z,14.60
2018-06-14T05:22:29.368Z,14.70
2018-06-14T05:24:58.021Z,14.70
2018-06-14T05:27:26.727Z,14.70
2018-06-14T05:29:55.446Z,14.80
2018-06-14T05:32:24.173Z,14.80
2018-06-14T05:34:52.818Z,14.80
2018-06-14T05:37:21.592Z,14.80
2018-06-14T05:39:50.259Z,14.80
2018-06-14T05:42:18.968Z,14.90
2018-06-14T05:44:47.600Z,14.90
2018-06-14T05:47:16.256Z,14.90
2018-06-14T05:49:44.930Z,15.00
2018-06-14T05:52:13.559Z,15.00
2018-06-14T05:54:42.237Z,15.00
2018-06-14T05:57:10.941Z,15.10
2018-06-14T05:59:39.689Z,15.10
2018-06-14T06:02:08.432Z,15.10
2018-06-14T06:04:37.174Z,15.10
2018-06-14T06:07:06.069Z,15.10
2018-06-14T06:09:34.986Z,15.10
2018-06-14T06:12:03.776Z,15.20
2018-06-14T06:14:32.540Z,15.10
2018-06-14T06:17:02.281Z,15.10
2018-06-14T06:19:31.030Z,15.10
2018-06-14T06:21:59.747Z,15.20
2018-06-14T06:24:28.386Z,15.10
2018-06-14T06:26:57.069Z,15.20
2018-06-14T06:29:25.725Z,15.20
2018-06-14T06:31:54.433Z,15.20
2018-06-14T06:34:23.167Z,15.30
2018-06-14T06:36:51.804Z,15.20
2018-06-14T06:39:20.491Z,15.30
2018-06-14T06:41:49.160Z,15.40
2018-06-14T06:44:17.858Z,15.50
2018-06-14T06:46:46.494Z,15.40
2018-06-14T06:49:15.155Z,15.40
2018-06-14T06:51:43.803Z,15.50
2018-06-14T06:54:12.478Z,15.50
2018-06-14T06:59:09.512Z,15.60
2018-06-14T07:01:38.251Z,15.70
2018-06-14T07:04:08.865Z,15.70
2018-06-14T07:06:37.601Z,15.80
2018-06-14T07:09:08.746Z,15.70
2018-06-14T07:11:37.481Z,15.80
2018-06-14T07:14:06.292Z,15.70
2018-06-14T07:16:35.165Z,15.80
2018-06-14T07:19:03.959Z,15.80
2018-06-14T07:21:33.072Z,15.80
2018-06-14T07:24:01.751Z,15.90
2018-06-14T07:26:30.518Z,15.90
2018-06-14T07:28:59.203Z,15.90
2018-06-14T07:31:27.843Z,16.00
2018-06-14T07:33:56.639Z,16.10
2018-06-14T07:36:25.312Z,16.20
2018-06-14T07:38:53.960Z,16.10
2018-06-14T07:41:22.630Z,16.20
2018-06-14T07:43:51.282Z,16.20
2018-06-14T07:46:19.969Z,16.20
2018-06-14T07:48:48.640Z,16.30
2018-06-14T07:51:17.311Z,16.40
2018-06-14T07:53:45.938Z,16.40
2018-06-14T07:56:14.627Z,16.40
2018-06-14T07:58:43.261Z,16.50
2018-06-14T08:01:11.956Z,16.80
2018-06-14T08:03:40.682Z,16.80
2018-06-14T08:06:09.485Z,16.90
2018-06-14T08:08:38.202Z,17.10
2018-06-14T08:13:35.341Z,17.20
2018-06-14T08:16:04.058Z,17.30
2018-06-14T08:18:32.918Z,17.40
2018-06-14T08:21:01.670Z,17.40
2018-06-14T08:23:30.392Z,17.10
2018-06-14T08:25:59.058Z,17.00
2018-06-14T08:28:27.985Z,17.30
2018-06-14T08:30:56.624Z,17.70
2018-06-14T08:33:25.245Z,18.30
2018-06-14T08:35:53.866Z,18.50
2018-06-14T08:38:22.504Z,18.40
2018-06-14T08:40:51.126Z,18.50
2018-06-14T08:43:19.749Z,18.60
2018-06-14T08:45:48.424Z,18.50
2018-06-14T08:48:17.072Z,18.50
2018-06-14T08:50:45.732Z,18.50
2018-06-14T08:53:14.378Z,18.40
2018-06-14T08:55:43.074Z,18.40
2018-06-14T08:58:11.715Z,18.20
2018-06-14T09:00:40.384Z,18.10
2018-06-14T09:03:09.153Z,18.20
2018-06-14T09:05:37.839Z,18.20
2018-06-14T09:08:06.934Z,18.00
2018-06-14T09:10:35.617Z,17.80
2018-06-14T09:13:04.388Z,17.70
2018-06-14T09:15:33.191Z,17.40
2018-06-14T09:18:01.941Z,17.10
2018-06-14T09:20:30.666Z,17.20
2018-06-14T09:22:59.331Z,17.20
2018-06-14T09:25:28.023Z,17.00
2018-06-14T09:27:56.663Z,16.90
2018-06-14T09:30:25.381Z,16.90
2018-06-14T09:32:54.170Z,16.70
2018-06-14T09:35:22.881Z,16.70
2018-06-14T09:37:51.546Z,16.80
2018-06-14T09:40:20.252Z,16.90
2018-06-14T09:42:48.876Z,17.00
2018-06-14T09:45:17.545Z,17.10
2018-06-14T09:47:46.194Z,17.10
2018-06-14T09:50:14.961Z,17.20
2018-06-14T09:52:43.600Z,17.50
2018-06-14T09:55:12.323Z,17.50
2018-06-14T09:57:41.153Z,17.70
2018-06-14T10:00:09.859Z,18.10
2018-06-14T10:02:38.600Z,17.80
2018-06-14T10:05:07.524Z,17.30
2018-06-14T10:07:36.332Z,17.40
2018-06-14T10:10:05.074Z,17.70
2018-06-14T10:12:35.374Z,18.20
2018-06-14T10:15:05.125Z,18.60
2018-06-14T10:17:33.880Z,19.40
2018-06-14T10:20:02.638Z,19.80
2018-06-14T10:22:31.323Z,20.30
2018-06-14T10:25:00.009Z,20.50
2018-06-14T10:27:28.696Z,20.50
2018-06-14T10:29:57.319Z,20.40
2018-06-14T10:32:25.970Z,20.40
2018-06-14T10:34:54.622Z,20.40
2018-06-14T10:37:23.254Z,20.20
2018-06-14T10:39:51.887Z,19.90
2018-06-14T10:42:20.522Z,19.60
2018-06-14T10:44:49.213Z,19.40
2018-06-14T10:47:18.047Z,19.50
2018-06-14T10:49:46.690Z,19.50
2018-06-14T10:52:15.452Z,19.70
2018-06-14T10:54:44.059Z,19.60
2018-06-14T10:57:12.740Z,19.30
2018-06-14T10:59:41.457Z,19.60
2018-06-14T11:02:10.195Z,19.90
2018-06-14T11:04:38.955Z,20.20
2018-06-14T11:07:07.682Z,20.20
2018-06-14T11:09:36.439Z,20.20
2018-06-14T11:12:05.232Z,20.00
2018-06-14T11:14:34.008Z,20.10
2018-06-14T11:17:02.734Z,20.30
2018-06-14T11:19:31.569Z,21.00
2018-06-14T11:22:00.602Z,22.00
2018-06-14T11:24:29.264Z,22.50
2018-06-14T11:26:57.854Z,22.70
2018-06-14T11:29:26.482Z,22.50
2018-06-14T11:31:55.163Z,22.40
2018-06-14T11:34:23.821Z,22.00
2018-06-14T11:36:52.562Z,22.50
2018-06-14T11:39:21.187Z,22.80
2018-06-14T11:41:49.850Z,22.60
2018-06-14T11:44:18.452Z,22.10
2018-06-14T11:46:47.110Z,22.20
2018-06-14T11:49:15.753Z,22.30
2018-06-14T11:51:44.525Z,22.00
2018-06-14T11:54:13.203Z,21.80
2018-06-14T11:56:41.903Z,22.00
2018-06-14T11:59:10.571Z,22.00
2018-06-14T12:01:39.328Z,22.00
2018-06-14T12:04:08.107Z,21.80
2018-06-14T12:06:36.814Z,21.90
2018-06-14T12:09:06.722Z,21.80
2018-06-14T12:14:04.063Z,21.70
2018-06-14T12:16:32.848Z,21.70
2018-06-14T12:19:01.588Z,21.40
2018-06-14T12:21:30.919Z,21.00
2018-06-14T12:23:59.567Z,20.80
2018-06-14T12:26:28.234Z,21.10
2018-06-14T12:28:56.876Z,21.30
2018-06-14T12:31:25.573Z,21.40
2018-06-14T12:33:54.248Z,21.30
2018-06-14T12:36:22.898Z,21.50
2018-06-14T12:38:51.530Z,20.80
2018-06-14T12:41:20.163Z,20.70
2018-06-14T12:43:48.807Z,20.50
2018-06-14T12:46:17.489Z,20.50
2018-06-14T12:48:46.118Z,20.70
2018-06-14T12:51:14.807Z,20.90
2018-06-14T12:53:43.472Z,20.40
2018-06-14T12:56:12.175Z,20.50
2018-06-14T12:58:40.931Z,20.80
2018-06-14T13:01:09.661Z,21.30
2018-06-14T13:03:38.412Z,21.60
2018-06-14T13:06:07.107Z,21.20
2018-06-14T13:08:35.863Z,21.10
2018-06-14T13:11:04.745Z,21.00
2018-06-14T13:13:33.574Z,20.90
2018-06-14T13:16:02.323Z,20.70
2018-06-14T13:18:31.007Z,20.70
2018-06-14T13:20:59.745Z,20.60
2018-06-14T13:23:28.380Z,20.90
2018-06-14T13:25:57.160Z,20.50
2018-06-14T13:28:25.852Z,20.70
2018-06-14T13:30:54.539Z,20.60
2018-06-14T13:33:23.189Z,20.50
2018-06-14T13:35:51.850Z,20.40
2018-06-14T13:38:20.516Z,20.60
2018-06-14T13:40:49.167Z,20.70
2018-06-14T13:43:17.918Z,21.00
2018-06-14T13:45:46.606Z,20.80
2018-06-14T13:50:43.600Z,21.10
2018-06-14T13:53:12.391Z,21.10
2018-06-14T13:55:41.042Z,20.90
2018-06-14T13:58:09.782Z,20.60
2018-06-14T14:00:38.499Z,20.70
2018-06-14T14:03:07.180Z,20.80
2018-06-14T14:05:36.017Z,20.90
2018-06-14T14:08:04.830Z,21.10
2018-06-14T14:10:33.784Z,21.30
2018-06-14T14:13:02.504Z,21.10
2018-06-14T14:15:33.379Z,21.20
2018-06-14T14:18:02.085Z,21.10
2018-06-14T14:20:30.765Z,21.10
2018-06-14T14:22:59.432Z,21.20
2018-06-14T14:25:28.079Z,21.30
2018-06-14T14:27:56.832Z,21.40
2018-06-14T14:30:25.465Z,21.20
2018-06-14T14:32:54.215Z,21.10
2018-06-14T14:35:22.874Z,20.80
2018-06-14T14:37:51.566Z,20.60
2018-06-14T14:40:20.251Z,20.40
2018-06-14T14:42:48.927Z,20.20
2018-06-14T14:45:17.582Z,20.10
2018-06-14T14:47:46.262Z,19.80
2018-06-14T14:50:14.957Z,19.80
2018-06-14T14:52:43.627Z,19.80
2018-06-14T14:55:12.326Z,19.50
2018-06-14T14:57:41.038Z,19.50
2018-06-14T15:00:09.765Z,19.60
2018-06-14T15:02:38.727Z,19.60
2018-06-14T15:05:07.461Z,19.60
2018-06-14T15:07:36.165Z,19.60
2018-06-14T15:10:04.940Z,19.80
2018-06-14T15:12:33.967Z,20.00
2018-06-14T15:15:02.736Z,20.10
2018-06-14T15:17:32.345Z,20.00
2018-06-14T15:20:01.049Z,20.20
2018-06-14T15:22:29.907Z,20.30
2018-06-14T15:24:58.605Z,20.00
2018-06-14T15:27:27.300Z,19.90
2018-06-14T15:29:55.935Z,19.90
2018-06-14T15:32:24.558Z,19.90
2018-06-14T15:34:53.213Z,20.00
2018-06-14T15:37:21.879Z,20.10
2018-06-14T15:39:50.548Z,20.10
2018-06-14T15:42:19.181Z,20.10
2018-06-14T15:44:47.857Z,20.10
2018-06-14T15:47:16.526Z,20.10
2018-06-14T15:49:45.182Z,20.20
2018-06-14T15:52:13.883Z,20.20
2018-06-14T15:54:42.645Z,20.20
2018-06-14T15:57:11.323Z,20.20
2018-06-14T15:59:40.111Z,20.30
2018-06-14T16:02:08.832Z,20.40
2018-06-14T16:04:37.695Z,20.40
2018-06-14T16:07:06.484Z,20.40
2018-06-14T16:09:35.276Z,20.40
2018-06-14T16:12:04.063Z,20.40
2018-06-14T16:14:32.742Z,20.10
2018-06-14T16:17:01.449Z,20.10
2018-06-14T16:19:30.161Z,20.10
2018-06-14T16:21:58.793Z,20.10
2018-06-14T16:24:27.427Z,20.00
2018-06-14T16:26:56.082Z,19.80
2018-06-14T16:29:24.753Z,19.90
2018-06-14T16:31:53.394Z,19.80
2018-06-14T16:34:22.037Z,19.90
2018-06-14T16:36:50.650Z,19.80
2018-06-14T16:39:19.309Z,19.90
2018-06-14T16:41:47.915Z,19.90
2018-06-14T16:44:16.523Z,19.90
2018-06-14T16:46:45.144Z,19.90
2018-06-14T16:49:13.796Z,19.90
2018-06-14T16:51:42.498Z,19.90
2018-06-14T16:54:11.170Z,19.90
2018-06-14T16:56:39.931Z,19.90
2018-06-14T16:59:08.704Z,19.90
2018-06-14T17:01:37.382Z,19.80
2018-06-14T17:04:06.318Z,19.80
2018-06-14T17:06:35.012Z,19.80
2018-06-14T17:09:04.523Z,19.80
2018-06-14T17:11:33.211Z,19.70
2018-06-14T17:14:01.920Z,19.70
2018-06-14T17:16:30.625Z,19.70
2018-06-14T17:18:59.313Z,19.60
2018-06-14T17:21:28.325Z,19.50
2018-06-14T17:23:56.993Z,19.40
2018-06-14T17:26:25.678Z,19.40
2018-06-14T17:28:54.300Z,19.40
2018-06-14T17:31:23.147Z,19.40
2018-06-14T17:33:51.930Z,19.30
2018-06-14T17:36:20.628Z,19.30
2018-06-14T17:38:49.403Z,19.30
2018-06-14T17:41:18.794Z,19.30
2018-06-14T17:43:47.753Z,19.30
2018-06-14T17:48:44.923Z,19.30
2018-06-14T17:51:13.817Z,19.30
2018-06-14T17:53:42.569Z,19.30
2018-06-14T17:56:11.309Z,19.20
2018-06-14T17:58:40.024Z,19.20
2018-06-14T18:01:08.809Z,19.20
2018-06-14T18:03:37.596Z,19.10
2018-06-14T18:06:06.994Z,19.10
2018-06-14T18:08:35.486Z,19.10
2018-06-14T18:11:04.560Z,19.00
2018-06-14T18:13:33.387Z,18.90
2018-06-14T18:16:02.176Z,18.80
2018-06-14T18:18:31.004Z,18.80
2018-06-14T18:20:59.871Z,18.70
2018-06-14T18:23:28.610Z,18.60
2018-06-14T18:25:57.310Z,18.50
2018-06-14T18:28:26.103Z,18.40
2018-06-14T18:31:00.190Z,18.30
2018-06-14T18:33:28.994Z,18.20
2018-06-14T18:35:57.659Z,18.10
2018-06-14T18:38:26.314Z,18.00
2018-06-14T18:40:55.012Z,17.90
2018-06-14T18:43:23.713Z,17.80
2018-06-14T18:45:52.450Z,17.80
2018-06-14T18:48:21.187Z,17.70
2018-06-14T18:50:49.865Z,17.60
2018-06-14T18:53:18.581Z,17.50
2018-06-14T18:55:47.259Z,17.40
2018-06-14T18:58:15.923Z,17.30
2018-06-14T19:00:47.150Z,17.20
2018-06-14T19:03:15.801Z,17.10
2018-06-14T19:05:44.458Z,17.00
2018-06-14T19:08:14.178Z,16.90
2018-06-14T19:10:42.839Z,16.80
2018-06-14T19:13:11.538Z,16.70
2018-06-14T19:15:40.295Z,16.60
2018-06-14T19:18:09.022Z,16.50
2018-06-14T19:20:37.852Z,16.40
2018-06-14T19:23:06.938Z,16.30
2018-06-14T19:25:35.736Z,16.20
2018-06-14T19:28:04.740Z,16.20
2018-06-14T19:30:33.635Z,16.10
2018-06-14T19:33:03.125Z,16.10
2018-06-14T19:35:32.180Z,16.10
2018-06-14T19:38:01.967Z,16.10
2018-06-14T19:40:30.649Z,16.10
2018-06-14T19:42:59.442Z,16.10
2018-06-14T19:45:28.168Z,16.00
2018-06-14T19:47:56.879Z,16.00
2018-06-14T19:50:25.562Z,15.90
2018-06-14T19:52:54.283Z,15.90
2018-06-14T19:55:22.968Z,15.80
2018-06-14T19:57:51.622Z,15.80
2018-06-14T20:00:20.398Z,15.70
2018-06-14T20:02:49.158Z,15.60
2018-06-14T20:05:17.850Z,15.50
2018-06-14T20:07:48.315Z,15.40
2018-06-14T20:10:16.979Z,15.40
2018-06-14T20:12:45.753Z,15.30
2018-06-14T20:15:14.505Z,15.20
2018-06-14T20:17:43.273Z,15.10
2018-06-14T20:20:11.994Z,15.00
2018-06-14T20:22:40.691Z,14.90
2018-06-14T20:25:09.867Z,14.90
2018-06-14T20:27:38.743Z,14.70
2018-06-14T20:30:07.558Z,14.70
2018-06-14T20:32:36.437Z,14.60
2018-06-14T20:35:05.247Z,14.50
2018-06-14T20:37:34.142Z,14.50
2018-06-14T20:40:03.148Z,14.40
2018-06-14T20:42:32.734Z,14.40
2018-06-14T20:45:01.685Z,14.30
2018-06-14T20:47:30.387Z,14.20
2018-06-14T20:49:59.930Z,14.10
2018-06-14T20:52:29.113Z,14.10
2018-06-14T20:54:58.522Z,14.00
2018-06-14T20:57:27.755Z,13.90
2018-06-14T20:59:57.116Z,13.80
2018-06-14T21:02:26.704Z,13.80
2018-06-14T21:04:56.135Z,13.80
2018-06-14T21:07:25.761Z,13.80
2018-06-14T21:09:55.037Z,13.70
2018-06-14T21:12:24.039Z,13.70
2018-06-14T21:14:53.399Z,13.60
2018-06-14T21:17:22.294Z,13.60
2018-06-14T21:19:51.446Z,13.50
2018-06-14T21:22:20.200Z,13.50
2018-06-14T21:24:49.132Z,13.50
2018-06-14T21:27:18.345Z,13.50
2018-06-14T21:29:48.074Z,13.50
2018-06-14T21:32:16.794Z,13.40
2018-06-14T21:34:46.401Z,13.40
2018-06-14T21:37:15.160Z,13.40
2018-06-14T21:39:43.882Z,13.30
2018-06-14T21:42:13.795Z,13.30
2018-06-14T21:44:42.985Z,13.20
2018-06-14T21:47:11.879Z,13.20
2018-06-14T21:49:40.862Z,13.10
2018-06-14T21:52:09.855Z,13.00
2018-06-14T21:54:38.862Z,13.00
2018-06-14T21:57:07.810Z,13.00
2018-06-14T21:59:37.219Z,12.90
2018-06-14T22:02:06.058Z,12.90
2018-06-14T22:04:34.919Z,12.80
2018-06-14T22:07:03.834Z,12.70
2018-06-14T22:09:32.823Z,12.70
2018-06-14T22:12:02.519Z,12.70
2018-06-14T22:14:31.278Z,12.70
2018-06-14T22:16:59.965Z,12.60
2018-06-14T22:19:28.672Z,12.50
2018-06-14T22:21:57.405Z,12.60
2018-06-14T22:24:26.102Z,12.50
2018-06-14T22:26:54.812Z,12.40
2018-06-14T22:29:23.493Z,12.40
2018-06-14T22:31:52.258Z,12.40
2018-06-14T22:34:32.540Z,12.40
2018-06-14T22:37:01.329Z,12.30
2018-06-14T22:39:30.116Z,12.30
2018-06-14T22:41:58.820Z,12.20
2018-06-14T22:44:27.543Z,12.20
2018-06-14T22:46:56.339Z,12.20
2018-06-14T22:49:25.032Z,12.20
2018-06-14T22:53:01.314Z,12.10
2018-06-14T22:55:30.071Z,12.10
2018-06-14T22:57:58.800Z,12.10
2018-06-14T23:01:36.902Z,12.00
2018-06-14T23:04:06.544Z,12.00
2018-06-14T23:06:35.500Z,12.00
2018-06-14T23:11:19.088Z,11.90
2018-06-14T23:13:47.827Z,11.90
2018-06-14T23:16:16.550Z,11.80
2018-06-14T23:18:45.258Z,11.80
2018-06-14T23:21:13.994Z,11.70
2018-06-14T23:23:42.727Z,11.70
2018-06-14T23:26:11.556Z,11.80
2018-06-14T23:28:40.315Z,11.70
2018-06-14T23:31:09.064Z,11.70
2018-06-14T23:33:37.783Z,11.70
2018-06-14T23:36:06.633Z,11.70
2018-06-14T23:38:35.413Z,11.70
2018-06-14T23:41:04.201Z,11.60
2018-06-14T23:43:33.042Z,11.60
2018-06-14T23:46:01.742Z,11.60
2018-06-14T23:48:30.418Z,11.60
2018-06-14T23:50:59.253Z,11.60
2018-06-14T23:53:27.945Z,11.50
2018-06-14T23:55:56.639Z,11.50
2018-06-14T23:58:25.432Z,11.50
